sensor_id;sensor_type;location;lat;lon;timestamp;P1;durP1;ratioP1;P2;durP2;ratioP2
48534;SDS011;34323;52.022;5.686;2023-03-04T00:01:47;11.68;;;2.22;;
48534;SDS011;34323;52.022;5.686;2023-03-04T00:04:12;10.07;;;2.38;;
48534;SDS011;34323;52.022;5.686;2023-03-04T00:06:38;17.92;;;2.08;;
48534;SDS011;34323;52.022;5.686;2023-03-04T00:09:04;13.18;;;2.60;;
48534;SDS011;34323;52.022;5.686;2023-03-04T00:11:32;12.05;;;2.35;;
48534;SDS011;34323;52.022;5.686;2023-03-04T00:13:58;10.57;;;1.27;;
48534;SDS011;34323;52.022;5.686;2023-03-04T00:16:24;17.73;;;2.58;;
48534;SDS011;34323;52.022;5.686;2023-03-04T00:18:52;14.95;;;2.05;;
48534;SDS011;34323;52.022;5.686;2023-03-04T00:21:18;8.13;;;1.92;;
48534;SDS011;34323;52.022;5.686;2023-03-04T00:23:43;14.38;;;2.40;;
48534;SDS011;34323;52.022;5.686;2023-03-04T00:26:09;14.60;;;1.92;;
48534;SDS011;34323;52.022;5.686;2023-03-04T00:28:34;13.68;;;1.83;;
48534;SDS011;34323;52.022;5.686;2023-03-04T00:31:00;7.68;;;1.98;;
48534;SDS011;34323;52.022;5.686;2023-03-04T00:33:26;20.98;;;2.35;;
48534;SDS011;34323;52.022;5.686;2023-03-04T00:35:51;12.95;;;2.45;;
48534;SDS011;34323;52.022;5.686;2023-03-04T00:38:17;16.95;;;2.50;;
48534;SDS011;34323;52.022;5.686;2023-03-04T00:40:42;7.18;;;2.47;;
48534;SDS011;34323;52.022;5.686;2023-03-04T00:43:08;6.60;;;1.48;;
48534;SDS011;34323;52.022;5.686;2023-03-04T00:45:34;10.45;;;2.38;;
48534;SDS011;34323;52.022;5.686;2023-03-04T00:47:59;10.25;;;3.55;;
48534;SDS011;34323;52.022;5.686;2023-03-04T00:50:25;13.75;;;2.15;;
48534;SDS011;34323;52.022;5.686;2023-03-04T00:52:50;10.77;;;2.70;;
48534;SDS011;34323;52.022;5.686;2023-03-04T00:55:16;14.65;;;2.65;;
48534;SDS011;34323;52.022;5.686;2023-03-04T00:57:41;14.55;;;3.15;;
48534;SDS011;34323;52.022;5.686;2023-03-04T01:00:07;21.02;;;2.80;;
48534;SDS011;34323;52.022;5.686;2023-03-04T01:02:33;14.00;;;2.17;;
48534;SDS011;34323;52.022;5.686;2023-03-04T01:04:59;16.20;;;2.88;;
48534;SDS011;34323;52.022;5.686;2023-03-04T01:07:24;10.32;;;1.98;;
48534;SDS011;34323;52.022;5.686;2023-03-04T01:09:50;17.88;;;3.55;;
48534;SDS011;34323;52.022;5.686;2023-03-04T01:12:16;12.23;;;3.10;;
48534;SDS011;34323;52.022;5.686;2023-03-04T01:14:41;13.70;;;2.22;;
48534;SDS011;34323;52.022;5.686;2023-03-04T01:17:07;10.25;;;2.38;;
48534;SDS011;34323;52.022;5.686;2023-03-04T01:19:32;5.47;;;1.83;;
48534;SDS011;34323;52.022;5.686;2023-03-04T01:21:58;7.32;;;1.40;;
48534;SDS011;34323;52.022;5.686;2023-03-04T01:24:23;17.60;;;3.40;;
48534;SDS011;34323;52.022;5.686;2023-03-04T01:26:49;11.70;;;2.08;;
48534;SDS011;34323;52.022;5.686;2023-03-04T01:29:14;15.07;;;1.75;;
48534;SDS011;34323;52.022;5.686;2023-03-04T01:31:40;9.75;;;1.95;;
48534;SDS011;34323;52.022;5.686;2023-03-04T01:34:06;9.70;;;1.83;;
48534;SDS011;34323;52.022;5.686;2023-03-04T01:36:33;11.38;;;1.98;;
48534;SDS011;34323;52.022;5.686;2023-03-04T01:38:59;12.98;;;1.95;;
48534;SDS011;34323;52.022;5.686;2023-03-04T01:41:25;9.27;;;1.98;;
48534;SDS011;34323;52.022;5.686;2023-03-04T01:43:52;9.85;;;1.60;;
48534;SDS011;34323;52.022;5.686;2023-03-04T01:46:23;8.00;;;1.23;;
48534;SDS011;34323;52.022;5.686;2023-03-04T01:48:49;7.97;;;2.03;;
48534;SDS011;34323;52.022;5.686;2023-03-04T01:51:15;13.20;;;3.15;;
48534;SDS011;34323;52.022;5.686;2023-03-04T01:53:43;12.75;;;1.90;;
48534;SDS011;34323;52.022;5.686;2023-03-04T01:56:22;10.45;;;1.73;;
48534;SDS011;34323;52.022;5.686;2023-03-04T02:01:36;9.32;;;1.73;;
48534;SDS011;34323;52.022;5.686;2023-03-04T02:04:02;13.88;;;2.08;;
48534;SDS011;34323;52.022;5.686;2023-03-04T02:06:29;6.57;;;1.45;;
48534;SDS011;34323;52.022;5.686;2023-03-04T02:08:54;11.75;;;1.77;;
48534;SDS011;34323;52.022;5.686;2023-03-04T02:11:20;15.05;;;1.65;;
48534;SDS011;34323;52.022;5.686;2023-03-04T02:13:46;11.80;;;1.92;;
48534;SDS011;34323;52.022;5.686;2023-03-04T02:16:11;14.70;;;2.25;;
48534;SDS011;34323;52.022;5.686;2023-03-04T02:18:37;7.53;;;1.77;;
48534;SDS011;34323;52.022;5.686;2023-03-04T02:21:14;11.73;;;1.73;;
48534;SDS011;34323;52.022;5.686;2023-03-04T02:23:54;7.63;;;1.48;;
48534;SDS011;34323;52.022;5.686;2023-03-04T02:26:30;7.07;;;1.50;;
48534;SDS011;34323;52.022;5.686;2023-03-04T02:28:59;8.52;;;1.83;;
48534;SDS011;34323;52.022;5.686;2023-03-04T02:36:26;15.35;;;2.20;;
48534;SDS011;34323;52.022;5.686;2023-03-04T02:38:52;10.23;;;1.60;;
48534;SDS011;34323;52.022;5.686;2023-03-04T02:41:19;12.05;;;1.20;;
48534;SDS011;34323;52.022;5.686;2023-03-04T02:43:49;9.25;;;1.40;;
48534;SDS011;34323;52.022;5.686;2023-03-04T02:46:19;8.98;;;1.40;;
48534;SDS011;34323;52.022;5.686;2023-03-04T02:48:44;11.63;;;1.95;;
48534;SDS011;34323;52.022;5.686;2023-03-04T02:51:10;20.88;;;1.40;;
48534;SDS011;34323;52.022;5.686;2023-03-04T02:53:35;9.73;;;1.60;;
48534;SDS011;34323;52.022;5.686;2023-03-04T02:56:01;10.75;;;1.52;;
48534;SDS011;34323;52.022;5.686;2023-03-04T02:58:27;11.60;;;1.65;;
48534;SDS011;34323;52.022;5.686;2023-03-04T03:00:53;9.40;;;1.70;;
48534;SDS011;34323;52.022;5.686;2023-03-04T03:03:18;11.43;;;1.90;;
48534;SDS011;34323;52.022;5.686;2023-03-04T03:05:44;12.95;;;1.95;;
48534;SDS011;34323;52.022;5.686;2023-03-04T03:08:10;7.97;;;1.45;;
48534;SDS011;34323;52.022;5.686;2023-03-04T03:10:36;12.98;;;2.45;;
48534;SDS011;34323;52.022;5.686;2023-03-04T03:13:01;11.95;;;1.52;;
48534;SDS011;34323;52.022;5.686;2023-03-04T03:15:27;13.93;;;3.17;;
48534;SDS011;34323;52.022;5.686;2023-03-04T03:17:53;7.70;;;1.48;;
48534;SDS011;34323;52.022;5.686;2023-03-04T03:20:18;12.40;;;1.33;;
48534;SDS011;34323;52.022;5.686;2023-03-04T03:22:44;4.32;;;1.23;;
48534;SDS011;34323;52.022;5.686;2023-03-04T03:25:11;8.55;;;1.27;;
48534;SDS011;34323;52.022;5.686;2023-03-04T03:27:38;12.15;;;2.05;;
48534;SDS011;34323;52.022;5.686;2023-03-04T03:30:04;10.27;;;1.30;;
48534;SDS011;34323;52.022;5.686;2023-03-04T03:32:31;10.00;;;1.55;;
48534;SDS011;34323;52.022;5.686;2023-03-04T03:34:56;7.78;;;1.17;;
48534;SDS011;34323;52.022;5.686;2023-03-04T03:37:22;5.72;;;1.25;;
48534;SDS011;34323;52.022;5.686;2023-03-04T03:39:47;13.10;;;2.20;;
48534;SDS011;34323;52.022;5.686;2023-03-04T03:42:13;7.63;;;1.35;;
48534;SDS011;34323;52.022;5.686;2023-03-04T03:44:38;13.30;;;1.48;;
48534;SDS011;34323;52.022;5.686;2023-03-04T03:47:04;14.73;;;2.85;;
48534;SDS011;34323;52.022;5.686;2023-03-04T03:49:30;7.57;;;2.15;;
48534;SDS011;34323;52.022;5.686;2023-03-04T03:51:55;12.02;;;1.98;;
48534;SDS011;34323;52.022;5.686;2023-03-04T03:54:21;5.20;;;1.45;;
48534;SDS011;34323;52.022;5.686;2023-03-04T03:56:47;9.65;;;1.40;;
48534;SDS011;34323;52.022;5.686;2023-03-04T03:59:12;8.20;;;1.42;;
48534;SDS011;34323;52.022;5.686;2023-03-04T04:01:38;14.88;;;1.40;;
48534;SDS011;34323;52.022;5.686;2023-03-04T04:04:03;5.50;;;1.20;;
48534;SDS011;34323;52.022;5.686;2023-03-04T04:06:29;7.25;;;1.20;;
48534;SDS011;34323;52.022;5.686;2023-03-04T04:08:55;8.40;;;0.90;;
48534;SDS011;34323;52.022;5.686;2023-03-04T04:11:20;5.90;;;1.30;;
48534;SDS011;34323;52.022;5.686;2023-03-04T04:13:46;6.75;;;1.50;;
48534;SDS011;34323;52.022;5.686;2023-03-04T04:16:11;9.65;;;1.83;;
48534;SDS011;34323;52.022;5.686;2023-03-04T04:18:37;8.27;;;1.25;;
48534;SDS011;34323;52.022;5.686;2023-03-04T04:21:03;10.18;;;1.05;;
48534;SDS011;34323;52.022;5.686;2023-03-04T04:23:29;9.32;;;1.48;;
48534;SDS011;34323;52.022;5.686;2023-03-04T04:25:55;7.13;;;1.27;;
48534;SDS011;34323;52.022;5.686;2023-03-04T04:28:21;7.40;;;1.27;;
48534;SDS011;34323;52.022;5.686;2023-03-04T04:30:47;11.38;;;1.50;;
48534;SDS011;34323;52.022;5.686;2023-03-04T04:33:12;4.47;;;1.10;;
48534;SDS011;34323;52.022;5.686;2023-03-04T04:35:39;8.00;;;0.98;;
48534;SDS011;34323;52.022;5.686;2023-03-04T04:38:05;9.43;;;1.13;;
48534;SDS011;34323;52.022;5.686;2023-03-04T04:40:32;11.10;;;0.98;;
48534;SDS011;34323;52.022;5.686;2023-03-04T04:42:57;11.18;;;1.73;;
48534;SDS011;34323;52.022;5.686;2023-03-04T04:45:23;8.50;;;1.80;;
48534;SDS011;34323;52.022;5.686;2023-03-04T04:47:52;16.45;;;1.40;;
48534;SDS011;34323;52.022;5.686;2023-03-04T04:50:21;9.10;;;1.35;;
48534;SDS011;34323;52.022;5.686;2023-03-04T04:52:50;8.35;;;1.08;;
48534;SDS011;34323;52.022;5.686;2023-03-04T04:55:16;10.80;;;1.77;;
48534;SDS011;34323;52.022;5.686;2023-03-04T04:57:41;8.35;;;1.60;;
48534;SDS011;34323;52.022;5.686;2023-03-04T05:00:07;7.82;;;1.23;;
48534;SDS011;34323;52.022;5.686;2023-03-04T05:02:34;12.77;;;1.20;;
48534;SDS011;34323;52.022;5.686;2023-03-04T05:05:01;10.18;;;1.05;;
48534;SDS011;34323;52.022;5.686;2023-03-04T05:07:28;5.20;;;1.88;;
48534;SDS011;34323;52.022;5.686;2023-03-04T05:09:53;9.93;;;1.30;;
48534;SDS011;34323;52.022;5.686;2023-03-04T05:12:19;11.45;;;1.05;;
48534;SDS011;34323;52.022;5.686;2023-03-04T05:14:44;1.52;;;0.82;;
48534;SDS011;34323;52.022;5.686;2023-03-04T05:17:10;6.07;;;1.13;;
48534;SDS011;34323;52.022;5.686;2023-03-04T05:19:35;6.60;;;1.17;;
48534;SDS011;34323;52.022;5.686;2023-03-04T05:22:01;1.77;;;0.70;;
48534;SDS011;34323;52.022;5.686;2023-03-04T05:24:26;6.90;;;1.52;;
48534;SDS011;34323;52.022;5.686;2023-03-04T05:26:52;12.02;;;2.15;;
48534;SDS011;34323;52.022;5.686;2023-03-04T05:29:17;4.85;;;1.17;;
48534;SDS011;34323;52.022;5.686;2023-03-04T05:31:43;6.78;;;1.02;;
48534;SDS011;34323;52.022;5.686;2023-03-04T05:34:09;5.50;;;1.25;;
48534;SDS011;34323;52.022;5.686;2023-03-04T05:36:34;4.82;;;1.10;;
48534;SDS011;34323;52.022;5.686;2023-03-04T05:39:00;8.65;;;1.48;;
48534;SDS011;34323;52.022;5.686;2023-03-04T05:41:26;1.83;;;0.95;;
48534;SDS011;34323;52.022;5.686;2023-03-04T05:43:51;3.42;;;1.23;;
48534;SDS011;34323;52.022;5.686;2023-03-04T05:46:17;6.68;;;1.27;;
48534;SDS011;34323;52.022;5.686;2023-03-04T05:48:49;6.85;;;1.15;;
48534;SDS011;34323;52.022;5.686;2023-03-04T05:51:18;7.75;;;1.38;;
48534;SDS011;34323;52.022;5.686;2023-03-04T05:53:45;9.25;;;1.17;;
48534;SDS011;34323;52.022;5.686;2023-03-04T05:56:12;4.65;;;1.15;;
48534;SDS011;34323;52.022;5.686;2023-03-04T05:58:39;6.65;;;1.80;;
48534;SDS011;34323;52.022;5.686;2023-03-04T06:01:05;9.50;;;1.13;;
48534;SDS011;34323;52.022;5.686;2023-03-04T06:03:31;3.45;;;0.90;;
48534;SDS011;34323;52.022;5.686;2023-03-04T06:05:57;6.13;;;1.17;;
48534;SDS011;34323;52.022;5.686;2023-03-04T06:08:22;5.65;;;1.52;;
48534;SDS011;34323;52.022;5.686;2023-03-04T06:10:50;10.32;;;1.80;;
48534;SDS011;34323;52.022;5.686;2023-03-04T06:13:17;6.07;;;1.67;;
48534;SDS011;34323;52.022;5.686;2023-03-04T06:15:42;4.60;;;1.60;;
48534;SDS011;34323;52.022;5.686;2023-03-04T06:18:08;10.13;;;2.80;;
48534;SDS011;34323;52.022;5.686;2023-03-04T06:20:34;18.80;;;3.10;;
48534;SDS011;34323;52.022;5.686;2023-03-04T06:23:00;11.77;;;3.20;;
48534;SDS011;34323;52.022;5.686;2023-03-04T06:25:25;9.65;;;2.15;;
48534;SDS011;34323;52.022;5.686;2023-03-04T06:27:51;6.82;;;1.45;;
48534;SDS011;34323;52.022;5.686;2023-03-04T06:30:18;10.85;;;1.83;;
48534;SDS011;34323;52.022;5.686;2023-03-04T06:32:44;13.98;;;1.45;;
48534;SDS011;34323;52.022;5.686;2023-03-04T06:35:10;9.63;;;1.38;;
48534;SDS011;34323;52.022;5.686;2023-03-04T06:37:37;10.40;;;1.70;;
48534;SDS011;34323;52.022;5.686;2023-03-04T06:40:03;9.10;;;1.20;;
48534;SDS011;34323;52.022;5.686;2023-03-04T06:42:29;8.10;;;1.42;;
48534;SDS011;34323;52.022;5.686;2023-03-04T06:44:54;9.30;;;1.75;;
48534;SDS011;34323;52.022;5.686;2023-03-04T06:47:20;9.25;;;1.42;;
48534;SDS011;34323;52.022;5.686;2023-03-04T06:49:46;4.85;;;0.93;;
48534;SDS011;34323;52.022;5.686;2023-03-04T06:52:11;8.43;;;1.33;;
48534;SDS011;34323;52.022;5.686;2023-03-04T06:54:37;5.15;;;1.10;;
48534;SDS011;34323;52.022;5.686;2023-03-04T06:57:03;6.38;;;1.20;;
48534;SDS011;34323;52.022;5.686;2023-03-04T06:59:29;7.00;;;2.03;;
48534;SDS011;34323;52.022;5.686;2023-03-04T07:01:55;10.20;;;1.55;;
48534;SDS011;34323;52.022;5.686;2023-03-04T07:04:20;7.43;;;1.52;;
48534;SDS011;34323;52.022;5.686;2023-03-04T07:06:49;10.88;;;1.60;;
48534;SDS011;34323;52.022;5.686;2023-03-04T07:09:14;6.47;;;1.70;;
48534;SDS011;34323;52.022;5.686;2023-03-04T07:11:40;8.65;;;1.50;;
48534;SDS011;34323;52.022;5.686;2023-03-04T07:14:06;8.90;;;1.52;;
48534;SDS011;34323;52.022;5.686;2023-03-04T07:16:32;7.35;;;1.30;;
48534;SDS011;34323;52.022;5.686;2023-03-04T07:18:57;6.65;;;1.65;;
48534;SDS011;34323;52.022;5.686;2023-03-04T07:21:23;6.43;;;1.27;;
48534;SDS011;34323;52.022;5.686;2023-03-04T07:23:48;13.57;;;1.70;;
48534;SDS011;34323;52.022;5.686;2023-03-04T07:26:14;8.77;;;1.30;;
48534;SDS011;34323;52.022;5.686;2023-03-04T07:28:40;13.40;;;1.98;;
48534;SDS011;34323;52.022;5.686;2023-03-04T07:33:55;3.97;;;1.20;;
48534;SDS011;34323;52.022;5.686;2023-03-04T07:36:22;7.63;;;1.63;;
48534;SDS011;34323;52.022;5.686;2023-03-04T07:38:48;10.18;;;1.58;;
48534;SDS011;34323;52.022;5.686;2023-03-04T07:41:15;7.50;;;1.60;;
48534;SDS011;34323;52.022;5.686;2023-03-04T07:43:41;8.38;;;2.05;;
48534;SDS011;34323;52.022;5.686;2023-03-04T07:46:08;11.98;;;1.52;;
48534;SDS011;34323;52.022;5.686;2023-03-04T07:48:35;8.07;;;1.27;;
48534;SDS011;34323;52.022;5.686;2023-03-04T07:51:09;8.40;;;1.77;;
48534;SDS011;34323;52.022;5.686;2023-03-04T07:53:36;10.93;;;2.08;;
48534;SDS011;34323;52.022;5.686;2023-03-04T07:56:03;6.28;;;1.38;;
48534;SDS011;34323;52.022;5.686;2023-03-04T07:58:30;6.13;;;0.88;;
48534;SDS011;34323;52.022;5.686;2023-03-04T08:00:55;5.93;;;1.88;;
48534;SDS011;34323;52.022;5.686;2023-03-04T08:03:21;6.00;;;1.10;;
48534;SDS011;34323;52.022;5.686;2023-03-04T08:05:47;8.38;;;1.55;;
48534;SDS011;34323;52.022;5.686;2023-03-04T08:08:13;3.70;;;1.30;;
48534;SDS011;34323;52.022;5.686;2023-03-04T08:10:38;4.93;;;1.38;;
48534;SDS011;34323;52.022;5.686;2023-03-04T08:13:05;9.55;;;1.60;;
48534;SDS011;34323;52.022;5.686;2023-03-04T08:15:31;8.05;;;2.03;;
48534;SDS011;34323;52.022;5.686;2023-03-04T08:17:59;4.57;;;1.48;;
48534;SDS011;34323;52.022;5.686;2023-03-04T08:20:25;4.97;;;1.48;;
48534;SDS011;34323;52.022;5.686;2023-03-04T08:22:51;5.53;;;2.20;;
48534;SDS011;34323;52.022;5.686;2023-03-04T08:25:16;7.18;;;2.90;;
48534;SDS011;34323;52.022;5.686;2023-03-04T08:27:42;10.90;;;3.15;;
48534;SDS011;34323;52.022;5.686;2023-03-04T08:30:08;10.50;;;3.25;;
48534;SDS011;34323;52.022;5.686;2023-03-04T08:32:34;9.23;;;2.50;;
48534;SDS011;34323;52.022;5.686;2023-03-04T08:35:00;9.23;;;3.22;;
48534;SDS011;34323;52.022;5.686;2023-03-04T08:37:26;5.53;;;1.98;;
48534;SDS011;34323;52.022;5.686;2023-03-04T08:39:55;6.57;;;1.60;;
48534;SDS011;34323;52.022;5.686;2023-03-04T08:42:21;2.88;;;0.88;;
48534;SDS011;34323;52.022;5.686;2023-03-04T08:44:48;2.80;;;1.67;;
48534;SDS011;34323;52.022;5.686;2023-03-04T08:47:13;4.03;;;1.15;;
48534;SDS011;34323;52.022;5.686;2023-03-04T08:49:39;5.90;;;1.52;;
48534;SDS011;34323;52.022;5.686;2023-03-04T08:52:04;7.05;;;1.60;;
48534;SDS011;34323;52.022;5.686;2023-03-04T08:54:30;6.90;;;1.10;;
48534;SDS011;34323;52.022;5.686;2023-03-04T08:56:56;4.05;;;0.95;;
48534;SDS011;34323;52.022;5.686;2023-03-04T08:59:21;4.18;;;1.08;;
48534;SDS011;34323;52.022;5.686;2023-03-04T09:01:47;11.98;;;1.50;;
48534;SDS011;34323;52.022;5.686;2023-03-04T09:04:13;2.25;;;1.13;;
48534;SDS011;34323;52.022;5.686;2023-03-04T09:06:38;2.28;;;1.35;;
48534;SDS011;34323;52.022;5.686;2023-03-04T09:09:04;6.78;;;1.55;;
48534;SDS011;34323;52.022;5.686;2023-03-04T09:11:30;4.40;;;1.20;;
48534;SDS011;34323;52.022;5.686;2023-03-04T09:13:56;5.10;;;1.15;;
48534;SDS011;34323;52.022;5.686;2023-03-04T09:16:21;5.28;;;1.48;;
48534;SDS011;34323;52.022;5.686;2023-03-04T09:18:47;6.20;;;1.17;;
48534;SDS011;34323;52.022;5.686;2023-03-04T09:21:13;7.88;;;1.08;;
48534;SDS011;34323;52.022;5.686;2023-03-04T09:23:38;3.13;;;1.23;;
48534;SDS011;34323;52.022;5.686;2023-03-04T09:26:14;4.53;;;1.13;;
48534;SDS011;34323;52.022;5.686;2023-03-04T09:28:59;4.80;;;1.13;;
48534;SDS011;34323;52.022;5.686;2023-03-04T09:31:25;5.38;;;1.15;;
48534;SDS011;34323;52.022;5.686;2023-03-04T09:33:52;5.70;;;1.60;;
48534;SDS011;34323;52.022;5.686;2023-03-04T09:36:20;4.22;;;1.30;;
48534;SDS011;34323;52.022;5.686;2023-03-04T09:38:46;5.68;;;1.35;;
48534;SDS011;34323;52.022;5.686;2023-03-04T09:41:14;4.68;;;1.70;;
48534;SDS011;34323;52.022;5.686;2023-03-04T09:43:43;6.38;;;1.88;;
48534;SDS011;34323;52.022;5.686;2023-03-04T09:46:11;3.70;;;1.67;;
48534;SDS011;34323;52.022;5.686;2023-03-04T09:48:44;3.92;;;1.30;;
48534;SDS011;34323;52.022;5.686;2023-03-04T09:51:17;3.65;;;1.50;;
48534;SDS011;34323;52.022;5.686;2023-03-04T09:56:27;4.55;;;1.52;;
48534;SDS011;34323;52.022;5.686;2023-03-04T09:58:58;5.60;;;1.63;;
48534;SDS011;34323;52.022;5.686;2023-03-04T10:01:44;3.28;;;1.48;;
48534;SDS011;34323;52.022;5.686;2023-03-04T10:04:29;5.78;;;1.52;;
48534;SDS011;34323;52.022;5.686;2023-03-04T10:07:04;3.55;;;1.73;;
48534;SDS011;34323;52.022;5.686;2023-03-04T10:12:24;5.13;;;1.70;;
48534;SDS011;34323;52.022;5.686;2023-03-04T10:14:59;8.77;;;1.27;;
48534;SDS011;34323;52.022;5.686;2023-03-04T10:17:35;2.15;;;1.15;;
48534;SDS011;34323;52.022;5.686;2023-03-04T10:20:09;3.83;;;1.25;;
48534;SDS011;34323;52.022;5.686;2023-03-04T10:22:41;4.00;;;1.40;;
48534;SDS011;34323;52.022;5.686;2023-03-04T10:28:02;2.25;;;1.10;;
48534;SDS011;34323;52.022;5.686;2023-03-04T10:30:38;4.88;;;1.20;;
48534;SDS011;34323;52.022;5.686;2023-03-04T10:33:21;2.15;;;0.98;;
48534;SDS011;34323;52.022;5.686;2023-03-04T10:35:52;3.45;;;1.10;;
48534;SDS011;34323;52.022;5.686;2023-03-04T10:38:25;4.30;;;1.25;;
48534;SDS011;34323;52.022;5.686;2023-03-04T10:40:58;4.70;;;1.15;;
48534;SDS011;34323;52.022;5.686;2023-03-04T10:43:24;2.65;;;0.75;;
48534;SDS011;34323;52.022;5.686;2023-03-04T10:45:53;1.65;;;1.08;;
48534;SDS011;34323;52.022;5.686;2023-03-04T10:48:22;6.18;;;1.33;;
48534;SDS011;34323;52.022;5.686;2023-03-04T10:50:53;2.92;;;1.05;;
48534;SDS011;34323;52.022;5.686;2023-03-04T10:53:36;3.90;;;1.10;;
48534;SDS011;34323;52.022;5.686;2023-03-04T10:56:27;2.10;;;0.85;;
48534;SDS011;34323;52.022;5.686;2023-03-04T11:01:57;4.25;;;0.93;;
48534;SDS011;34323;52.022;5.686;2023-03-04T11:04:24;1.33;;;0.57;;
48534;SDS011;34323;52.022;5.686;2023-03-04T11:06:51;2.78;;;0.70;;
48534;SDS011;34323;52.022;5.686;2023-03-04T11:09:24;3.35;;;1.10;;
48534;SDS011;34323;52.022;5.686;2023-03-04T11:11:57;7.90;;;1.25;;
48534;SDS011;34323;52.022;5.686;2023-03-04T11:14:34;3.33;;;1.00;;
48534;SDS011;34323;52.022;5.686;2023-03-04T11:19:54;5.57;;;1.08;;
48534;SDS011;34323;52.022;5.686;2023-03-04T11:22:46;1.00;;;0.75;;
48534;SDS011;34323;52.022;5.686;2023-03-04T11:25:26;3.17;;;0.63;;
48534;SDS011;34323;52.022;5.686;2023-03-04T11:27:59;2.88;;;0.73;;
48534;SDS011;34323;52.022;5.686;2023-03-04T11:39:04;3.20;;;1.00;;
48534;SDS011;34323;52.022;5.686;2023-03-04T11:41:56;2.55;;;0.80;;
48534;SDS011;34323;52.022;5.686;2023-03-04T11:46:55;1.95;;;0.88;;
48534;SDS011;34323;52.022;5.686;2023-03-04T11:49:59;2.15;;;0.98;;
48534;SDS011;34323;52.022;5.686;2023-03-04T11:57:48;2.10;;;0.88;;
48534;SDS011;34323;52.022;5.686;2023-03-04T12:00:24;1.10;;;0.60;;
48534;SDS011;34323;52.022;5.686;2023-03-04T12:03:21;2.53;;;1.35;;
48534;SDS011;34323;52.022;5.686;2023-03-04T12:08:18;3.97;;;1.13;;
48534;SDS011;34323;52.022;5.686;2023-03-04T12:19:15;3.28;;;0.93;;
48534;SDS011;34323;52.022;5.686;2023-03-04T12:22:25;2.63;;;0.75;;
48534;SDS011;34323;52.022;5.686;2023-03-04T12:25:01;3.58;;;0.90;;
48534;SDS011;34323;52.022;5.686;2023-03-04T12:30:54;5.93;;;1.10;;
48534;SDS011;34323;52.022;5.686;2023-03-04T12:33:28;4.68;;;0.90;;
48534;SDS011;34323;52.022;5.686;2023-03-04T12:38:55;2.15;;;0.70;;
48534;SDS011;34323;52.022;5.686;2023-03-04T12:41:33;5.10;;;0.85;;
48534;SDS011;34323;52.022;5.686;2023-03-04T12:46:49;13.70;;;1.33;;
48534;SDS011;34323;52.022;5.686;2023-03-04T12:52:31;6.05;;;1.50;;
48534;SDS011;34323;52.022;5.686;2023-03-04T12:54:59;7.50;;;2.25;;
48534;SDS011;34323;52.022;5.686;2023-03-04T12:57:28;10.02;;;1.35;;
48534;SDS011;34323;52.022;5.686;2023-03-04T13:02:47;3.78;;;0.80;;
48534;SDS011;34323;52.022;5.686;2023-03-04T13:10:10;5.95;;;1.17;;
48534;SDS011;34323;52.022;5.686;2023-03-04T13:20:21;6.78;;;1.35;;
48534;SDS011;34323;52.022;5.686;2023-03-04T13:23:27;7.70;;;1.15;;
48534;SDS011;34323;52.022;5.686;2023-03-04T13:28:20;9.35;;;1.88;;
48534;SDS011;34323;52.022;5.686;2023-03-04T13:51:18;6.28;;;0.93;;
48534;SDS011;34323;52.022;5.686;2023-03-04T13:56:24;7.05;;;1.48;;
48534;SDS011;34323;52.022;5.686;2023-03-04T13:59:03;12.88;;;1.40;;
48534;SDS011;34323;52.022;5.686;2023-03-04T14:01:36;10.65;;;1.55;;
48534;SDS011;34323;52.022;5.686;2023-03-04T14:06:46;12.15;;;1.65;;
48534;SDS011;34323;52.022;5.686;2023-03-04T14:09:22;5.63;;;1.05;;
48534;SDS011;34323;52.022;5.686;2023-03-04T14:11:51;11.68;;;1.48;;
48534;SDS011;34323;52.022;5.686;2023-03-04T14:14:21;10.35;;;2.15;;
48534;SDS011;34323;52.022;5.686;2023-03-04T14:16:52;9.30;;;2.03;;
48534;SDS011;34323;52.022;5.686;2023-03-04T14:19:26;5.03;;;1.23;;
48534;SDS011;34323;52.022;5.686;2023-03-04T14:21:58;9.48;;;1.60;;
48534;SDS011;34323;52.022;5.686;2023-03-04T14:24:24;4.25;;;1.35;;
48534;SDS011;34323;52.022;5.686;2023-03-04T14:27:01;3.92;;;0.93;;
48534;SDS011;34323;52.022;5.686;2023-03-04T14:29:35;4.88;;;1.17;;
48534;SDS011;34323;52.022;5.686;2023-03-04T14:32:01;6.90;;;1.10;;
48534;SDS011;34323;52.022;5.686;2023-03-04T14:34:33;6.13;;;1.17;;
48534;SDS011;34323;52.022;5.686;2023-03-04T14:37:02;8.68;;;1.58;;
48534;SDS011;34323;52.022;5.686;2023-03-04T14:39:30;4.97;;;0.70;;
48534;SDS011;34323;52.022;5.686;2023-03-04T14:42:01;3.05;;;0.88;;
48534;SDS011;34323;52.022;5.686;2023-03-04T14:44:42;2.85;;;0.93;;
48534;SDS011;34323;52.022;5.686;2023-03-04T14:47:14;3.63;;;0.75;;
48534;SDS011;34323;52.022;5.686;2023-03-04T14:49:47;5.50;;;1.27;;
48534;SDS011;34323;52.022;5.686;2023-03-04T14:52:25;2.83;;;0.70;;
48534;SDS011;34323;52.022;5.686;2023-03-04T14:55:37;10.40;;;1.40;;
48534;SDS011;34323;52.022;5.686;2023-03-04T14:57:47;4.63;;;1.10;;
48534;SDS011;34323;52.022;5.686;2023-03-04T15:02:49;5.70;;;1.98;;
48534;SDS011;34323;52.022;5.686;2023-03-04T15:05:30;3.03;;;1.33;;
48534;SDS011;34323;52.022;5.686;2023-03-04T15:08:31;4.50;;;0.90;;
48534;SDS011;34323;52.022;5.686;2023-03-04T15:10:58;3.22;;;0.60;;
48534;SDS011;34323;52.022;5.686;2023-03-04T15:13:39;1.98;;;0.52;;
48534;SDS011;34323;52.022;5.686;2023-03-04T15:18:36;3.38;;;0.73;;
48534;SDS011;34323;52.022;5.686;2023-03-04T15:21:03;4.47;;;0.95;;
48534;SDS011;34323;52.022;5.686;2023-03-04T15:23:30;4.75;;;0.85;;
48534;SDS011;34323;52.022;5.686;2023-03-04T15:25:58;7.47;;;1.40;;
48534;SDS011;34323;52.022;5.686;2023-03-04T15:28:26;4.28;;;0.90;;
48534;SDS011;34323;52.022;5.686;2023-03-04T15:30:57;4.37;;;0.90;;
48534;SDS011;34323;52.022;5.686;2023-03-04T15:33:23;5.57;;;1.20;;
48534;SDS011;34323;52.022;5.686;2023-03-04T15:35:59;7.22;;;1.10;;
48534;SDS011;34323;52.022;5.686;2023-03-04T15:38:26;4.65;;;1.45;;
48534;SDS011;34323;52.022;5.686;2023-03-04T15:40:53;10.25;;;1.38;;
48534;SDS011;34323;52.022;5.686;2023-03-04T15:43:22;2.92;;;0.77;;
48534;SDS011;34323;52.022;5.686;2023-03-04T15:45:48;8.05;;;0.90;;
48534;SDS011;34323;52.022;5.686;2023-03-04T15:48:15;7.35;;;1.33;;
48534;SDS011;34323;52.022;5.686;2023-03-04T15:50:49;3.80;;;1.05;;
48534;SDS011;34323;52.022;5.686;2023-03-04T15:53:33;10.50;;;1.13;;
48534;SDS011;34323;52.022;5.686;2023-03-04T15:56:06;3.92;;;0.98;;
48534;SDS011;34323;52.022;5.686;2023-03-04T15:58:35;11.35;;;1.08;;
48534;SDS011;34323;52.022;5.686;2023-03-04T16:01:02;7.75;;;1.08;;
48534;SDS011;34323;52.022;5.686;2023-03-04T16:03:27;5.40;;;1.52;;
48534;SDS011;34323;52.022;5.686;2023-03-04T16:05:53;5.10;;;0.90;;
48534;SDS011;34323;52.022;5.686;2023-03-04T16:08:19;8.45;;;1.30;;
48534;SDS011;34323;52.022;5.686;2023-03-04T16:10:46;6.40;;;1.58;;
48534;SDS011;34323;52.022;5.686;2023-03-04T16:13:16;10.02;;;1.38;;
48534;SDS011;34323;52.022;5.686;2023-03-04T16:15:44;3.25;;;1.23;;
48534;SDS011;34323;52.022;5.686;2023-03-04T16:18:10;7.65;;;1.20;;
48534;SDS011;34323;52.022;5.686;2023-03-04T16:20:37;4.85;;;1.27;;
48534;SDS011;34323;52.022;5.686;2023-03-04T16:23:04;6.53;;;1.27;;
48534;SDS011;34323;52.022;5.686;2023-03-04T16:25:30;5.85;;;1.27;;
48534;SDS011;34323;52.022;5.686;2023-03-04T16:27:56;10.77;;;1.33;;
48534;SDS011;34323;52.022;5.686;2023-03-04T16:30:26;5.43;;;0.80;;
48534;SDS011;34323;52.022;5.686;2023-03-04T16:32:52;2.97;;;0.70;;
48534;SDS011;34323;52.022;5.686;2023-03-04T16:35:18;3.30;;;0.77;;
48534;SDS011;34323;52.022;5.686;2023-03-04T16:37:44;5.60;;;1.10;;
48534;SDS011;34323;52.022;5.686;2023-03-04T16:40:15;5.68;;;1.58;;
48534;SDS011;34323;52.022;5.686;2023-03-04T16:42:43;1.88;;;0.70;;
48534;SDS011;34323;52.022;5.686;2023-03-04T16:48:01;2.33;;;1.05;;